createdAt,value
2023-02-07T00:01:23.426Z,12.07
2023-02-07T00:03:52.287Z,13.47
2023-02-07T00:06:23.839Z,14.07
2023-02-07T00:08:52.980Z,13.83
2023-02-07T00:11:23.090Z,12.20
2023-02-07T00:13:53.401Z,12.83
2023-02-07T00:16:22.313Z,13.57
2023-02-07T00:18:52.168Z,12.37
2023-02-07T00:21:24.176Z,11.43
2023-02-07T00:23:53.238Z,12.60
2023-02-07T00:26:23.277Z,12.57
2023-02-07T00:28:52.559Z,12.57
2023-02-07T00:31:22.723Z,12.93
2023-02-07T00:33:52.349Z,11.90
2023-02-07T00:36:24.811Z,11.13
2023-02-07T00:38:52.708Z,12.87
2023-02-07T00:41:20.709Z,15.03
2023-02-07T00:43:48.976Z,11.90
2023-02-07T00:46:17.913Z,12.40
2023-02-07T00:48:46.407Z,12.20
2023-02-07T00:51:15.225Z,11.63
2023-02-07T00:53:48.038Z,10.30
2023-02-07T00:56:16.833Z,12.60
2023-02-07T00:58:44.718Z,11.60
2023-02-07T01:01:13.812Z,12.10
2023-02-07T01:03:42.074Z,12.77
2023-02-07T01:06:11.471Z,11.33
2023-02-07T01:08:39.535Z,10.50
2023-02-07T01:11:10.965Z,11.23
2023-02-07T01:13:39.822Z,10.97
2023-02-07T01:16:08.263Z,10.57
2023-02-07T01:18:36.240Z,11.90
2023-02-07T01:21:15.588Z,10.03
2023-02-07T01:23:43.720Z,10.97
2023-02-07T01:26:13.123Z,10.90
2023-02-07T01:28:41.271Z,9.40
2023-02-07T01:31:09.764Z,11.83
2023-02-07T01:33:38.603Z,10.90
2023-02-07T01:36:08.156Z,11.13
2023-02-07T01:38:36.247Z,10.13
2023-02-07T01:41:04.669Z,11.20
2023-02-07T01:43:34.306Z,12.17
2023-02-07T01:46:02.282Z,10.50
2023-02-07T01:48:35.079Z,11.77
2023-02-07T01:51:07.558Z,10.60
2023-02-07T01:53:38.580Z,10.90
2023-02-07T01:56:17.653Z,12.43
2023-02-07T01:58:56.821Z,10.20
2023-02-07T02:01:26.360Z,11.43
2023-02-07T02:03:57.046Z,11.43
2023-02-07T02:06:28.365Z,9.60
2023-02-07T02:08:59.029Z,9.77
2023-02-07T02:11:57.743Z,10.57
2023-02-07T02:14:43.298Z,9.57
2023-02-07T02:17:22.388Z,9.80
2023-02-07T02:20:28.748Z,10.33
2023-02-07T02:23:14.153Z,9.10
2023-02-07T02:26:22.837Z,9.80
2023-02-07T02:29:29.614Z,8.93
2023-02-07T02:32:24.636Z,9.03
2023-02-07T02:34:59.717Z,10.13
2023-02-07T02:40:09.574Z,8.87
2023-02-07T02:42:43.391Z,8.75
2023-02-07T02:45:15.743Z,8.57
2023-02-07T02:47:47.451Z,10.33
2023-02-07T02:50:27.777Z,10.30
2023-02-07T02:52:55.764Z,10.87
2023-02-07T02:55:46.531Z,10.63
2023-02-07T02:58:27.783Z,11.90
2023-02-07T03:01:10.751Z,11.87
2023-02-07T03:03:55.934Z,10.57
2023-02-07T03:06:53.624Z,10.47
2023-02-07T03:09:32.236Z,10.43
2023-02-07T03:12:08.107Z,11.43
2023-02-07T03:14:46.664Z,9.80
2023-02-07T03:17:21.971Z,10.03
2023-02-07T03:19:56.381Z,9.90
2023-02-07T03:22:29.334Z,11.48
2023-02-07T03:25:00.286Z,11.77
2023-02-07T03:27:31.240Z,12.87
2023-02-07T03:30:02.027Z,11.50
2023-02-07T03:32:34.851Z,11.37
2023-02-07T03:35:09.833Z,12.67
2023-02-07T03:37:41.826Z,11.30
2023-02-07T03:40:11.344Z,12.47
2023-02-07T03:42:42.658Z,11.33
2023-02-07T03:45:15.657Z,12.03
2023-02-07T03:47:43.549Z,11.53
2023-02-07T03:50:12.692Z,11.17
2023-02-07T03:52:42.063Z,11.97
2023-02-07T03:55:10.689Z,11.43
2023-02-07T03:57:38.713Z,10.63
2023-02-07T04:00:08.054Z,12.33
2023-02-07T04:02:42.322Z,11.93
2023-02-07T04:05:12.352Z,12.43
2023-02-07T04:07:40.361Z,10.03
2023-02-07T04:10:11.733Z,11.20
2023-02-07T04:12:39.805Z,12.17
2023-02-07T04:15:09.697Z,11.63
2023-02-07T04:17:37.818Z,10.33
2023-02-07T04:20:09.139Z,11.27
2023-02-07T04:22:37.044Z,11.87
2023-02-07T04:25:06.682Z,11.33
2023-02-07T04:27:38.643Z,11.23
2023-02-07T04:30:07.446Z,11.70
2023-02-07T04:32:35.567Z,12.37
2023-02-07T04:35:03.875Z,10.73
2023-02-07T04:37:31.916Z,12.10
2023-02-07T04:39:59.890Z,9.57
2023-02-07T04:42:27.873Z,11.43
2023-02-07T04:44:57.184Z,10.47
2023-02-07T04:47:25.196Z,10.53
2023-02-07T04:49:53.130Z,11.63
2023-02-07T04:52:21.024Z,10.27
2023-02-07T04:54:48.970Z,9.53
2023-02-07T04:57:17.382Z,10.03
2023-02-07T04:59:45.279Z,9.90
2023-02-07T05:02:14.648Z,10.00
2023-02-07T05:04:42.564Z,10.77
2023-02-07T05:07:10.498Z,10.37
2023-02-07T05:09:38.454Z,9.40
2023-02-07T05:12:06.580Z,11.47
2023-02-07T05:14:34.672Z,10.10
2023-02-07T05:17:02.653Z,11.93
2023-02-07T05:19:32.479Z,10.13
2023-02-07T05:22:00.644Z,11.03
2023-02-07T05:24:28.703Z,10.67
2023-02-07T05:26:56.612Z,12.03
2023-02-07T05:29:24.607Z,12.87
2023-02-07T05:32:12.187Z,9.90
2023-02-07T05:34:41.565Z,9.32
2023-02-07T05:37:09.550Z,10.23
2023-02-07T05:39:37.451Z,10.30
2023-02-07T05:42:05.556Z,12.10
2023-02-07T05:44:36.484Z,11.33
2023-02-07T05:47:04.521Z,10.70
2023-02-07T05:49:32.745Z,11.40
2023-02-07T05:52:02.066Z,10.67
2023-02-07T05:54:29.975Z,9.97
2023-02-07T05:56:57.997Z,10.57
2023-02-07T05:59:26.003Z,11.33
2023-02-07T06:01:54.009Z,11.30
2023-02-07T06:04:21.960Z,8.57
2023-02-07T06:06:49.876Z,10.33
2023-02-07T06:09:19.594Z,8.63
2023-02-07T06:11:47.493Z,10.27
2023-02-07T06:14:15.411Z,10.00
2023-02-07T06:16:43.644Z,10.10
2023-02-07T06:19:12.949Z,10.67
2023-02-07T06:21:46.390Z,10.10
2023-02-07T06:24:15.080Z,11.40
2023-02-07T06:26:46.637Z,10.10
2023-02-07T06:29:14.711Z,10.00
2023-02-07T06:31:42.738Z,10.77
2023-02-07T06:34:11.015Z,11.30
2023-02-07T06:36:39.340Z,10.37
2023-02-07T06:39:07.497Z,10.20
2023-02-07T06:41:35.500Z,10.80
2023-02-07T06:44:05.850Z,10.67
2023-02-07T06:46:34.649Z,11.17
2023-02-07T06:49:02.820Z,11.13
2023-02-07T06:51:30.966Z,11.53
2023-02-07T06:53:59.708Z,12.17
2023-02-07T06:56:28.510Z,11.07
2023-02-07T06:58:56.456Z,11.43
2023-02-07T07:01:26.109Z,12.67
2023-02-07T07:03:56.682Z,10.83
2023-02-07T07:06:24.882Z,11.77
2023-02-07T07:08:53.149Z,11.37
2023-02-07T07:11:21.555Z,10.87
2023-02-07T07:13:49.624Z,11.83
2023-02-07T07:16:17.670Z,10.50
2023-02-07T07:18:47.058Z,10.17
2023-02-07T07:21:15.253Z,10.70
2023-02-07T07:23:43.220Z,11.67
2023-02-07T07:26:11.368Z,11.30
2023-02-07T07:28:39.400Z,11.77
2023-02-07T07:31:09.053Z,11.37
2023-02-07T07:33:38.035Z,9.93
2023-02-07T07:36:09.831Z,11.43
2023-02-07T07:41:11.231Z,11.67
2023-02-07T07:43:39.299Z,11.50
2023-02-07T07:46:07.821Z,11.50
2023-02-07T07:48:36.301Z,12.37
2023-02-07T07:51:04.491Z,11.20
2023-02-07T07:53:33.822Z,9.97
2023-02-07T07:56:01.882Z,11.73
2023-02-07T07:58:30.541Z,10.77
2023-02-07T08:00:58.618Z,11.53
2023-02-07T08:03:27.268Z,11.97
2023-02-07T08:05:55.842Z,13.27
2023-02-07T08:08:24.107Z,13.03
2023-02-07T08:10:54.096Z,13.40
2023-02-07T08:13:22.596Z,11.50
2023-02-07T08:15:50.874Z,14.17
2023-02-07T08:18:18.985Z,14.00
2023-02-07T08:20:47.251Z,13.13
2023-02-07T08:23:15.483Z,12.60
2023-02-07T08:25:44.660Z,14.13
2023-02-07T08:28:14.884Z,13.63
2023-02-07T08:30:43.299Z,14.33
2023-02-07T08:33:11.453Z,21.43
2023-02-07T08:35:39.455Z,15.40
2023-02-07T08:38:07.666Z,14.17
2023-02-07T08:40:36.365Z,14.23
2023-02-07T08:43:06.989Z,13.23
2023-02-07T08:45:36.654Z,21.00
2023-02-07T08:48:05.197Z,17.13
2023-02-07T08:50:33.280Z,12.43
2023-02-07T08:53:01.357Z,12.67
2023-02-07T08:55:29.625Z,11.97
2023-02-07T08:57:57.680Z,12.93
2023-02-07T09:00:25.681Z,12.97
2023-02-07T09:02:55.011Z,13.13
2023-02-07T09:05:23.009Z,12.83
2023-02-07T09:07:51.225Z,12.27
2023-02-07T09:10:19.318Z,11.93
2023-02-07T09:12:47.363Z,12.07
2023-02-07T09:15:15.464Z,11.50
2023-02-07T09:17:43.642Z,12.30
2023-02-07T09:20:13.900Z,12.50
2023-02-07T09:22:55.778Z,11.80
2023-02-07T09:25:23.934Z,11.68
2023-02-07T09:27:52.236Z,12.05
2023-02-07T09:30:20.330Z,11.47
2023-02-07T09:32:48.610Z,13.45
2023-02-07T09:35:18.181Z,13.38
2023-02-07T09:37:49.781Z,12.43
2023-02-07T09:40:20.408Z,25.67
2023-02-07T09:42:56.625Z,13.30
2023-02-07T09:45:30.798Z,13.82
2023-02-07T09:48:04.241Z,12.27
2023-02-07T09:50:38.407Z,10.23
2023-02-07T09:53:15.680Z,11.35
2023-02-07T09:55:50.279Z,10.43
2023-02-07T09:58:22.393Z,11.57
2023-02-07T10:00:59.364Z,11.82
2023-02-07T10:03:29.489Z,11.32
2023-02-07T10:06:16.995Z,11.05
2023-02-07T10:08:47.265Z,9.32
2023-02-07T10:11:22.225Z,9.23
2023-02-07T10:14:07.240Z,10.05
2023-02-07T10:16:51.458Z,10.30
2023-02-07T10:19:33.833Z,9.05
2023-02-07T10:22:16.670Z,12.48
2023-02-07T10:25:12.947Z,15.63
2023-02-07T10:27:51.826Z,12.57
2023-02-07T10:30:26.914Z,11.48
2023-02-07T10:32:55.380Z,9.18
2023-02-07T10:35:32.129Z,8.93
2023-02-07T10:38:03.612Z,11.25
2023-02-07T10:40:37.669Z,9.55
2023-02-07T10:43:11.781Z,9.43
2023-02-07T10:45:43.072Z,10.07
2023-02-07T10:48:15.552Z,7.90
2023-02-07T10:50:44.898Z,8.48
2023-02-07T10:53:54.257Z,8.25
2023-02-07T10:56:25.566Z,9.07
2023-02-07T10:58:54.190Z,7.60
2023-02-07T11:01:24.333Z,8.15
2023-02-07T11:03:52.920Z,8.13
2023-02-07T11:06:27.687Z,8.32
2023-02-07T11:09:21.031Z,7.20
2023-02-07T11:11:50.678Z,8.05
2023-02-07T11:14:26.332Z,6.97
2023-02-07T11:16:55.606Z,8.18
2023-02-07T11:19:27.691Z,8.93
2023-02-07T11:22:07.042Z,7.78
2023-02-07T11:24:38.979Z,7.38
2023-02-07T11:27:12.737Z,8.75
2023-02-07T11:29:47.740Z,7.77
2023-02-07T11:32:17.129Z,8.32
2023-02-07T11:34:49.122Z,8.52
2023-02-07T11:37:29.671Z,7.50
2023-02-07T11:40:23.453Z,8.40
2023-02-07T11:42:59.821Z,8.30
2023-02-07T11:45:29.246Z,8.15
2023-02-07T11:47:59.983Z,8.45
2023-02-07T11:50:31.351Z,8.18
2023-02-07T11:53:01.268Z,7.72
2023-02-07T11:55:35.054Z,7.55
2023-02-07T11:58:10.366Z,7.45
2023-02-07T12:00:39.680Z,7.70
2023-02-07T12:03:15.295Z,7.22
2023-02-07T12:05:47.359Z,7.13
2023-02-07T12:08:19.568Z,7.20
2023-02-07T12:10:53.780Z,11.52
2023-02-07T12:13:25.302Z,7.45
2023-02-07T12:15:57.453Z,8.27
2023-02-07T12:18:30.621Z,10.88
2023-02-07T12:21:05.699Z,7.78
2023-02-07T12:23:43.630Z,7.90
2023-02-07T12:26:23.016Z,7.75
2023-02-07T12:29:13.285Z,6.82
2023-02-07T12:31:51.854Z,8.13
2023-02-07T12:34:28.678Z,7.00
2023-02-07T12:37:04.436Z,7.00
2023-02-07T12:39:41.925Z,7.68
2023-02-07T12:42:29.352Z,6.97
2023-02-07T12:45:01.517Z,7.00
2023-02-07T12:47:43.906Z,7.07
2023-02-07T12:50:24.675Z,6.65
2023-02-07T12:53:02.892Z,6.90
2023-02-07T12:55:43.508Z,6.65
2023-02-07T12:58:31.461Z,5.65
2023-02-07T13:01:06.075Z,6.55
2023-02-07T13:08:16.948Z,5.85
2023-02-07T13:10:56.360Z,5.80
2023-02-07T13:13:30.058Z,5.95
2023-02-07T13:16:04.390Z,5.53
2023-02-07T13:18:40.738Z,6.95
2023-02-07T13:21:18.729Z,7.43
2023-02-07T13:23:49.473Z,6.68
2023-02-07T13:26:21.211Z,6.20
2023-02-07T13:28:55.250Z,6.28
2023-02-07T13:31:28.773Z,6.00
2023-02-07T13:33:56.955Z,6.43
2023-02-07T13:36:42.294Z,6.20
2023-02-07T13:39:25.346Z,5.43
2023-02-07T13:42:04.054Z,5.97
2023-02-07T13:44:40.559Z,6.53
2023-02-07T13:47:34.962Z,6.65
2023-02-07T13:50:12.166Z,4.90
2023-02-07T13:52:48.678Z,5.90
2023-02-07T13:55:25.966Z,5.03
2023-02-07T13:58:12.133Z,5.65
2023-02-07T14:01:01.937Z,6.40
2023-02-07T14:03:31.825Z,5.88
2023-02-07T14:06:21.323Z,5.47
2023-02-07T14:09:04.893Z,5.80
2023-02-07T14:11:39.181Z,5.53
2023-02-07T14:14:15.513Z,5.80
2023-02-07T14:16:49.210Z,5.95
2023-02-07T14:19:37.313Z,5.33
2023-02-07T14:22:17.943Z,5.75
2023-02-07T14:25:21.886Z,5.43
2023-02-07T14:28:19.679Z,6.03
2023-02-07T14:31:03.480Z,5.75
2023-02-07T14:33:36.384Z,6.28
2023-02-07T14:36:20.766Z,5.93
2023-02-07T14:39:23.814Z,6.30
2023-02-07T14:41:53.437Z,6.07
2023-02-07T14:44:25.915Z,5.60
2023-02-07T14:46:57.897Z,5.88
2023-02-07T14:49:33.490Z,6.38
2023-02-07T14:52:06.904Z,6.47
2023-02-07T14:54:43.945Z,5.38
2023-02-07T14:57:23.118Z,5.70
2023-02-07T15:00:02.824Z,5.32
2023-02-07T15:02:34.872Z,5.40
2023-02-07T15:05:21.511Z,5.43
2023-02-07T15:07:57.045Z,5.10
2023-02-07T15:10:28.661Z,6.97
2023-02-07T15:12:57.089Z,6.05
2023-02-07T15:15:27.308Z,6.10
2023-02-07T15:17:57.404Z,5.68
2023-02-07T15:20:29.093Z,5.60
2023-02-07T15:22:59.028Z,5.82
2023-02-07T15:25:30.729Z,6.10
2023-02-07T15:28:03.831Z,6.07
2023-02-07T15:30:32.894Z,6.22
2023-02-07T15:33:01.046Z,5.53
2023-02-07T15:35:37.155Z,5.85
2023-02-07T15:38:17.545Z,5.95
2023-02-07T15:40:47.085Z,6.68
2023-02-07T15:43:26.545Z,6.78
2023-02-07T15:46:10.353Z,6.28
2023-02-07T15:48:50.380Z,5.90
2023-02-07T15:51:21.556Z,7.50
2023-02-07T15:53:52.141Z,7.35
2023-02-07T15:56:21.775Z,6.95
2023-02-07T15:58:51.361Z,5.97
2023-02-07T16:01:24.749Z,6.70
2023-02-07T16:03:56.618Z,6.53
2023-02-07T16:06:26.716Z,8.70
2023-02-07T16:08:58.477Z,7.22
2023-02-07T16:11:41.192Z,7.00
2023-02-07T16:14:21.352Z,7.75
2023-02-07T16:16:53.972Z,7.43
2023-02-07T16:19:26.296Z,7.78
2023-02-07T16:22:03.829Z,7.00
2023-02-07T16:25:14.771Z,6.28
2023-02-07T16:27:45.284Z,6.45
2023-02-07T16:30:17.036Z,6.65
2023-02-07T16:32:45.105Z,7.18
2023-02-07T16:35:19.836Z,6.72
2023-02-07T16:37:47.793Z,6.93
2023-02-07T16:40:15.905Z,7.07
2023-02-07T16:42:45.867Z,7.30
2023-02-07T16:45:19.705Z,7.18
2023-02-07T16:47:49.538Z,7.07
2023-02-07T16:50:19.810Z,7.00
2023-02-07T16:52:49.288Z,7.30
2023-02-07T16:55:17.490Z,7.57
2023-02-07T16:57:48.885Z,8.38
2023-02-07T17:00:19.355Z,7.95
2023-02-07T17:02:48.613Z,8.05
2023-02-07T17:05:16.969Z,7.63
2023-02-07T17:07:46.159Z,7.63
2023-02-07T17:10:22.607Z,8.93
2023-02-07T17:12:51.932Z,9.05
2023-02-07T17:15:19.868Z,8.65
2023-02-07T17:17:47.990Z,7.93
2023-02-07T17:20:25.311Z,7.47
2023-02-07T17:22:53.919Z,8.75
2023-02-07T17:25:24.069Z,8.05
2023-02-07T17:27:53.503Z,8.63
2023-02-07T17:30:23.978Z,10.05
2023-02-07T17:32:52.188Z,8.90
2023-02-07T17:35:20.639Z,9.00
2023-02-07T17:37:49.907Z,8.10
2023-02-07T17:40:30.845Z,8.20
2023-02-07T17:43:00.789Z,8.35
2023-02-07T17:45:29.988Z,9.13
2023-02-07T17:47:58.128Z,9.77
2023-02-07T17:50:29.636Z,9.70
2023-02-07T17:53:01.399Z,10.10
2023-02-07T17:55:30.009Z,13.30
2023-02-07T17:57:57.962Z,9.82
2023-02-07T18:00:29.399Z,9.95
2023-02-07T18:02:57.608Z,9.32
2023-02-07T18:05:25.943Z,9.68
2023-02-07T18:07:54.299Z,9.73
2023-02-07T18:10:24.589Z,8.65
2023-02-07T18:12:52.820Z,9.82
2023-02-07T18:15:21.226Z,8.77
2023-02-07T18:17:51.864Z,9.30
2023-02-07T18:20:24.778Z,8.15
2023-02-07T18:22:54.349Z,8.05
2023-02-07T18:25:22.411Z,9.55
2023-02-07T18:27:51.860Z,9.95
2023-02-07T18:30:21.632Z,8.35
2023-02-07T18:32:51.083Z,7.68
2023-02-07T18:35:19.698Z,10.27
2023-02-07T18:37:47.682Z,9.32
2023-02-07T18:40:16.812Z,11.00
2023-02-07T18:42:45.113Z,11.32
2023-02-07T18:45:14.473Z,11.95
2023-02-07T18:47:43.390Z,15.13
2023-02-07T18:50:13.712Z,11.25
2023-02-07T18:52:41.680Z,11.57
2023-02-07T18:55:10.210Z,10.80
2023-02-07T18:57:38.167Z,10.95
2023-02-07T19:00:09.310Z,9.13
2023-02-07T19:02:37.694Z,10.27
2023-02-07T19:05:07.736Z,10.23
2023-02-07T19:07:37.013Z,9.95
2023-02-07T19:10:08.183Z,9.70
2023-02-07T19:12:36.156Z,9.45
2023-02-07T19:15:05.472Z,8.75
2023-02-07T19:17:33.440Z,9.77
2023-02-07T19:20:01.355Z,8.43
2023-02-07T19:22:37.612Z,10.48
2023-02-07T19:25:07.852Z,9.57
2023-02-07T19:27:35.867Z,10.10
2023-02-07T19:30:03.889Z,9.15
2023-02-07T19:32:31.928Z,9.80
2023-02-07T19:34:59.977Z,12.88
2023-02-07T19:37:27.874Z,11.55
2023-02-07T19:39:56.504Z,10.38
2023-02-07T19:42:26.006Z,10.38
2023-02-07T19:44:54.059Z,11.80
2023-02-07T19:47:21.999Z,9.15
2023-02-07T19:49:54.956Z,12.57
2023-02-07T19:52:24.069Z,10.30
2023-02-07T19:54:53.110Z,10.73
2023-02-07T19:57:22.490Z,10.60
2023-02-07T19:59:52.283Z,10.73
2023-02-07T20:02:20.186Z,10.88
2023-02-07T20:04:48.237Z,10.20
2023-02-07T20:07:16.230Z,10.32
2023-02-07T20:09:44.286Z,11.80
2023-02-07T20:12:12.297Z,11.20
2023-02-07T20:14:40.380Z,11.10
2023-02-07T20:17:09.866Z,9.38
2023-02-07T20:19:38.128Z,10.35
2023-02-07T20:22:06.071Z,9.57
2023-02-07T20:24:34.118Z,9.25
2023-02-07T20:27:02.032Z,11.57
2023-02-07T20:29:31.436Z,11.63
2023-02-07T20:31:59.436Z,10.07
2023-02-07T20:34:28.854Z,14.38
2023-02-07T20:36:57.086Z,12.35
2023-02-07T20:39:26.446Z,12.07
2023-02-07T20:41:54.382Z,11.90
2023-02-07T20:44:26.571Z,10.98
2023-02-07T20:46:55.804Z,10.82
2023-02-07T20:49:27.261Z,10.38
2023-02-07T20:51:58.350Z,10.63
2023-02-07T20:54:28.407Z,11.30
2023-02-07T20:56:58.092Z,10.35
2023-02-07T20:59:27.665Z,13.45
2023-02-07T21:01:57.947Z,11.38
2023-02-07T21:04:26.890Z,11.50
2023-02-07T21:06:56.201Z,12.60
2023-02-07T21:09:24.387Z,10.65
2023-02-07T21:11:53.576Z,10.70
2023-02-07T21:14:25.597Z,10.45
2023-02-07T21:16:54.675Z,11.43
2023-02-07T21:19:23.284Z,10.60
2023-02-07T21:21:52.143Z,10.30
2023-02-07T21:24:26.241Z,10.57
2023-02-07T21:26:57.792Z,10.98
2023-02-07T21:29:27.980Z,9.45
2023-02-07T21:31:56.448Z,10.30
2023-02-07T21:34:29.953Z,10.70
2023-02-07T21:37:01.800Z,11.07
2023-02-07T21:39:33.729Z,11.73
2023-02-07T21:42:03.848Z,10.07
2023-02-07T21:44:37.678Z,10.85
2023-02-07T21:47:05.748Z,10.77
2023-02-07T21:49:39.695Z,10.65
2023-02-07T21:54:43.743Z,11.95
2023-02-07T21:57:17.381Z,11.35
2023-02-07T21:59:48.250Z,12.15
2023-02-07T22:02:16.267Z,11.25
2023-02-07T22:04:44.203Z,12.13
2023-02-07T22:07:12.149Z,11.25
2023-02-07T22:09:44.013Z,11.07
2023-02-07T22:12:11.981Z,11.68
2023-02-07T22:14:41.759Z,11.95
2023-02-07T22:17:12.277Z,11.73
2023-02-07T22:19:43.613Z,11.23
2023-02-07T22:22:13.913Z,11.40
2023-02-07T22:24:43.264Z,11.00
2023-02-07T22:27:12.070Z,12.00
2023-02-07T22:29:40.295Z,13.27
2023-02-07T22:32:08.250Z,11.88
2023-02-07T22:34:37.429Z,11.52
2023-02-07T22:37:05.292Z,12.63
2023-02-07T22:39:33.383Z,11.45
2023-02-07T22:42:02.793Z,12.43
2023-02-07T22:44:35.682Z,10.82
2023-02-07T22:47:06.669Z,10.35
2023-02-07T22:49:35.536Z,11.77
2023-02-07T22:52:06.766Z,11.57
2023-02-07T22:54:36.828Z,12.82
2023-02-07T22:57:07.933Z,13.38
2023-02-07T22:59:35.883Z,12.50
2023-02-07T23:02:03.946Z,12.63
2023-02-07T23:04:31.955Z,13.00
2023-02-07T23:07:00.652Z,11.48
2023-02-07T23:09:28.673Z,12.45
2023-02-07T23:11:58.820Z,12.73
2023-02-07T23:14:30.861Z,11.07
2023-02-07T23:17:00.918Z,12.07
2023-02-07T23:19:28.971Z,12.98
2023-02-07T23:21:59.098Z,12.73
2023-02-07T23:24:29.779Z,12.50
2023-02-07T23:26:57.780Z,13.00
2023-02-07T23:29:26.165Z,12.52
2023-02-07T23:31:55.454Z,12.07
2023-02-07T23:34:23.484Z,13.07
2023-02-07T23:36:51.371Z,12.25
2023-02-07T23:39:19.375Z,13.98
2023-02-07T23:41:50.440Z,12.68
2023-02-07T23:44:18.496Z,14.25
2023-02-07T23:46:46.642Z,13.98
2023-02-07T23:49:15.970Z,12.87
2023-02-07T23:51:45.453Z,12.73
2023-02-07T23:54:16.141Z,13.70
2023-02-07T23:56:54.272Z,12.70
2023-02-07T23:59:26.256Z,12.25
